Time;durP1;ratioP1;P1;durP2;ratioP2;P2;SDS_P1;SDS_P2;PMS_P1;PMS_P2;Temp;Humidity;BMP_temperature;BMP_pressure;BME280_temperature;BME280_humidity;BME280_pressure;Samples;Min_cycle;Max_cycle;Signal;HPM_P1;HPM_P2
2023/05/28 00:02:04;;;;;;;9.63;5.20;;;13.20;99.90;;;;;;4905739;29;20520;-78
2023/05/28 00:04:30;;;;;;;17.40;5.57;;;13.30;99.90;;;;;;4887009;28;20069;-78
2023/05/28 00:06:55;;;;;;;13.57;5.57;;;13.30;99.90;;;;;;4897891;28;20051;-79
2023/05/28 00:09:22;;;;;;;11.15;4.85;;;13.40;99.90;;;;;;4909157;28;20048;-81
2023/05/28 00:11:47;;;;;;;15.80;5.32;;;13.40;99.90;;;;;;4923838;29;20043;-79
2023/05/28 00:14:13;;;;;;;14.93;5.13;;;13.40;99.90;;;;;;4922984;29;20714;-80
2023/05/28 00:16:40;;;;;;;13.48;4.90;;;13.40;99.90;;;;;;4923746;28;20043;-80
2023/05/28 00:19:07;;;;;;;14.55;5.20;;;13.20;99.90;;;;;;4911867;29;20083;-79
2023/05/28 00:21:33;;;;;;;11.88;5.03;;;13.10;99.90;;;;;;4895218;28;20087;-79
2023/05/28 00:24:00;;;;;;;11.02;4.78;;;13.00;99.90;;;;;;4929692;28;20047;-80
2023/05/28 00:26:26;;;;;;;10.02;4.90;;;13.00;99.90;;;;;;4896439;28;20560;-79
2023/05/28 00:28:52;;;;;;;12.95;5.07;;;12.90;99.90;;;;;;4929259;28;20047;-80
2023/05/28 00:31:18;;;;;;;16.92;6.13;;;13.00;99.90;;;;;;4908631;29;20813;-78
2023/05/28 00:33:44;;;;;;;11.05;5.05;;;13.00;99.90;;;;;;4927412;29;20098;-79
2023/05/28 00:36:11;;;;;;;11.45;5.05;;;13.00;99.90;;;;;;4906371;28;20040;-81
2023/05/28 00:38:37;;;;;;;10.25;5.82;;;13.00;99.90;;;;;;4910624;28;20040;-83
2023/05/28 00:41:03;;;;;;;9.90;5.40;;;13.00;99.90;;;;;;4907949;29;20376;-78
2023/05/28 00:43:29;;;;;;;8.02;5.07;;;13.00;99.90;;;;;;4924729;29;20090;-80
2023/05/28 00:46:03;;;;;;;13.13;5.85;;;13.00;99.90;;;;;;4898317;28;20403;-81
2023/05/28 00:48:29;;;;;;;11.45;5.50;;;13.00;99.90;;;;;;4927123;29;20108;-78
2023/05/28 00:50:55;;;;;;;13.07;5.45;;;13.00;99.90;;;;;;4925617;29;20109;-77
2023/05/28 00:53:23;;;;;;;13.63;6.55;;;13.10;99.90;;;;;;4908488;28;20093;-81
2023/05/28 00:55:48;;;;;;;14.65;6.35;;;13.10;99.90;;;;;;4922507;29;20051;-81
2023/05/28 00:58:15;;;;;;;12.10;5.65;;;13.10;99.90;;;;;;4907102;28;20572;-81
2023/05/28 01:00:43;;;;;;;15.50;6.90;;;13.10;99.90;;;;;;4924011;29;20668;-77
2023/05/28 01:03:09;;;;;;;13.55;6.32;;;13.00;99.90;;;;;;4924822;28;20078;-76
2023/05/28 01:05:36;;;;;;;11.43;5.78;;;13.00;99.90;;;;;;4909213;28;20047;-78
2023/05/28 01:08:03;;;;;;;17.58;6.55;;;13.10;99.90;;;;;;4923982;28;20037;-80
2023/05/28 01:10:31;;;;;;;13.32;5.88;;;13.10;99.90;;;;;;4911910;28;20133;-81
2023/05/28 01:13:00;;;;;;;13.82;5.82;;;13.20;99.90;;;;;;4905497;28;20193;-81
2023/05/28 01:15:26;;;;;;;12.45;5.00;;;13.30;99.90;;;;;;4907909;28;20134;-81
2023/05/28 01:17:59;;;;;;;12.63;6.15;;;13.30;99.90;;;;;;4911953;28;20400;-79
2023/05/28 01:20:30;;;;;;;13.07;6.35;;;13.30;99.90;;;;;;4926024;28;20651;-79
2023/05/28 01:23:05;;;;;;;15.63;5.95;;;13.40;99.90;;;;;;4909053;28;20043;-78
2023/05/28 01:25:33;;;;;;;15.30;6.00;;;13.40;99.90;;;;;;4925788;29;20096;-78
2023/05/28 01:28:03;;;;;;;11.10;5.90;;;13.50;99.90;;;;;;4907647;28;20054;-82
2023/05/28 01:30:28;;;;;;;13.77;6.25;;;13.50;99.90;;;;;;4950795;28;20034;-82
2023/05/28 01:32:54;;;;;;;12.48;5.22;;;13.40;99.90;;;;;;4942742;28;20052;-79
2023/05/28 01:35:20;;;;;;;13.55;5.85;;;13.40;99.90;;;;;;4928455;29;20071;-78
2023/05/28 01:37:53;;;;;;;13.88;5.78;;;13.40;99.90;;;;;;4904802;28;20040;-80
2023/05/28 01:40:21;;;;;;;13.93;5.25;;;13.60;99.90;;;;;;4903028;29;20048;-79
2023/05/28 01:42:48;;;;;;;13.32;5.43;;;13.50;99.90;;;;;;4916256;28;20040;-82
2023/05/28 01:45:15;;;;;;;10.75;4.72;;;13.40;99.90;;;;;;4914244;29;20142;-78
2023/05/28 01:47:41;;;;;;;14.98;5.75;;;13.50;99.90;;;;;;4922618;29;20036;-79
2023/05/28 01:50:08;;;;;;;13.80;5.57;;;13.50;99.90;;;;;;4910445;29;20081;-76
2023/05/28 01:52:33;;;;;;;11.60;6.07;;;13.40;99.90;;;;;;4892755;29;20048;-79
2023/05/28 01:54:59;;;;;;;15.55;5.70;;;13.30;99.90;;;;;;4906768;28;20582;-82
2023/05/28 01:57:25;;;;;;;13.38;6.45;;;13.30;99.90;;;;;;4889784;29;20039;-80
2023/05/28 01:59:50;;;;;;;17.35;6.15;;;13.30;99.90;;;;;;4899968;28;20493;-79
2023/05/28 02:02:16;;;;;;;15.18;6.32;;;13.30;99.90;;;;;;4955989;28;20077;-79
2023/05/28 02:04:42;;;;;;;10.68;6.05;;;13.30;99.90;;;;;;4907989;29;20046;-80
2023/05/28 02:07:08;;;;;;;11.65;5.15;;;13.30;99.90;;;;;;4896211;29;20392;-80
2023/05/28 02:09:33;;;;;;;13.13;6.40;;;13.40;99.90;;;;;;4927388;28;20040;-79
2023/05/28 02:12:02;;;;;;;11.93;6.00;;;13.40;99.90;;;;;;4914297;28;20059;-79
2023/05/28 02:14:29;;;;;;;10.55;5.50;;;13.30;99.90;;;;;;4927685;29;20058;-78
2023/05/28 02:16:55;;;;;;;14.30;5.55;;;13.20;99.90;;;;;;4907153;28;20037;-82
2023/05/28 02:19:21;;;;;;;8.27;5.65;;;13.30;99.90;;;;;;4909934;29;20757;-80
2023/05/28 02:21:47;;;;;;;13.23;6.60;;;13.30;99.90;;;;;;4911665;29;20180;-81
2023/05/28 02:24:12;;;;;;;9.55;5.55;;;13.30;99.90;;;;;;4913346;28;20121;-79
2023/05/28 02:26:38;;;;;;;16.00;5.55;;;13.20;99.90;;;;;;4896277;28;20137;-78
2023/05/28 02:29:05;;;;;;;13.70;5.65;;;13.30;99.90;;;;;;4910578;28;20051;-79
2023/05/28 02:31:32;;;;;;;11.00;5.45;;;13.40;99.90;;;;;;4924317;28;20051;-83
2023/05/28 02:33:57;;;;;;;11.98;6.05;;;13.40;99.90;;;;;;4886994;29;20040;-81
2023/05/28 02:36:23;;;;;;;10.90;6.15;;;13.50;99.90;;;;;;4876923;29;20078;-78
2023/05/28 02:38:50;;;;;;;13.55;6.05;;;13.60;99.90;;;;;;4894792;28;20044;-80
2023/05/28 02:41:15;;;;;;;12.52;5.93;;;13.50;99.90;;;;;;4910387;28;20786;-78
2023/05/28 02:43:42;;;;;;;16.00;7.05;;;13.50;99.90;;;;;;4913527;28;20047;-77
2023/05/28 02:46:08;;;;;;;14.88;5.70;;;13.50;99.90;;;;;;4880749;28;20047;-81
2023/05/28 02:48:34;;;;;;;14.30;6.28;;;13.50;99.90;;;;;;4920287;28;20038;-82
2023/05/28 02:50:59;;;;;;;15.77;6.32;;;13.40;99.90;;;;;;4914292;29;20057;-79
2023/05/28 02:53:31;;;;;;;11.50;5.90;;;13.50;99.90;;;;;;4897008;28;20040;-83
2023/05/28 02:55:56;;;;;;;12.55;5.90;;;13.40;99.90;;;;;;4915485;28;20049;-79
2023/05/28 02:58:23;;;;;;;12.05;5.80;;;13.40;99.90;;;;;;4913874;28;20396;-79
2023/05/28 03:00:49;;;;;;;14.02;7.22;;;13.40;99.90;;;;;;4929025;29;20365;-80
2023/05/28 03:03:16;;;;;;;12.73;5.85;;;13.30;99.90;;;;;;4912282;29;20055;-79
2023/05/28 03:05:42;;;;;;;10.63;6.40;;;13.30;99.90;;;;;;4912879;28;20036;-81
2023/05/28 03:08:08;;;;;;;12.10;5.82;;;13.10;99.90;;;;;;4911758;28;20075;-77
2023/05/28 03:10:34;;;;;;;9.57;5.18;;;13.30;99.90;;;;;;4950035;28;20086;-76
2023/05/28 03:12:59;;;;;;;14.02;5.55;;;13.20;99.90;;;;;;4913269;29;20388;-78
2023/05/28 03:15:26;;;;;;;10.48;5.80;;;13.20;99.90;;;;;;4912910;28;20046;-78
2023/05/28 03:17:55;;;;;;;11.23;5.38;;;13.10;99.90;;;;;;4911779;29;20048;-83
2023/05/28 03:20:21;;;;;;;14.18;5.90;;;13.20;99.90;;;;;;4907676;29;20135;-80
2023/05/28 03:22:48;;;;;;;14.48;6.45;;;13.20;99.90;;;;;;4927568;28;20122;-81
2023/05/28 03:25:14;;;;;;;12.60;5.65;;;13.10;99.90;;;;;;4923675;29;20423;-77
2023/05/28 03:27:40;;;;;;;9.95;5.70;;;13.10;99.90;;;;;;4908071;28;20048;-77
2023/05/28 03:30:07;;;;;;;14.63;6.97;;;13.10;99.90;;;;;;4894586;28;20051;-79
2023/05/28 03:32:33;;;;;;;10.82;5.57;;;13.10;99.90;;;;;;4884509;28;20043;-79
2023/05/28 03:34:59;;;;;;;16.88;5.90;;;13.10;99.90;;;;;;4923142;28;20040;-78
2023/05/28 03:37:26;;;;;;;14.40;6.10;;;13.10;99.90;;;;;;4911330;28;20402;-79
2023/05/28 03:39:53;;;;;;;12.25;5.45;;;13.00;99.90;;;;;;4913313;28;20051;-80
2023/05/28 03:42:19;;;;;;;10.65;5.45;;;13.10;99.90;;;;;;4935545;28;20048;-76
2023/05/28 03:44:44;;;;;;;12.55;5.75;;;13.10;99.90;;;;;;4942294;28;20113;-78
2023/05/28 03:47:12;;;;;;;11.20;5.43;;;13.10;99.90;;;;;;4931559;29;20130;-80
2023/05/28 03:49:38;;;;;;;15.10;6.22;;;13.00;99.90;;;;;;4915511;29;20031;-79
2023/05/28 03:52:03;;;;;;;11.40;5.95;;;13.00;99.90;;;;;;4910137;29;20572;-79
2023/05/28 03:54:29;;;;;;;18.55;6.35;;;13.10;99.90;;;;;;4912759;28;20482;-83
2023/05/28 03:56:55;;;;;;;13.82;5.80;;;13.00;99.90;;;;;;4912972;28;20514;-77
2023/05/28 03:59:21;;;;;;;11.55;5.35;;;12.90;99.90;;;;;;4928040;28;20035;-78
2023/05/28 04:01:47;;;;;;;15.13;6.20;;;13.00;99.90;;;;;;4942411;28;20518;-79
2023/05/28 04:04:12;;;;;;;11.43;5.18;;;13.00;99.90;;;;;;4961440;28;20047;-80
2023/05/28 04:06:38;;;;;;;16.40;6.03;;;13.00;99.90;;;;;;4915628;28;20044;-80
2023/05/28 04:09:04;;;;;;;13.88;5.57;;;12.90;99.90;;;;;;4912092;28;20066;-79
2023/05/28 04:11:30;;;;;;;10.68;5.47;;;13.10;99.90;;;;;;4892156;28;20101;-77
2023/05/28 04:13:56;;;;;;;12.35;5.05;;;13.00;99.90;;;;;;4922888;28;20467;-83
2023/05/28 04:16:23;;;;;;;12.07;5.55;;;12.90;99.90;;;;;;4909996;28;21579;-78
2023/05/28 04:18:52;;;;;;;17.63;6.07;;;12.90;99.90;;;;;;4923442;28;20082;-82
2023/05/28 04:21:23;;;;;;;14.05;5.90;;;13.00;99.90;;;;;;4922041;29;20076;-76
2023/05/28 04:23:49;;;;;;;12.73;6.13;;;13.00;99.90;;;;;;4906393;28;20782;-77
2023/05/28 04:26:16;;;;;;;12.65;5.55;;;13.20;99.90;;;;;;4922585;29;20044;-77
2023/05/28 04:28:42;;;;;;;14.27;5.60;;;13.10;99.90;;;;;;4910819;28;20040;-77
2023/05/28 04:31:08;;;;;;;11.35;5.38;;;13.30;99.90;;;;;;4908106;29;20051;-80
2023/05/28 04:33:33;;;;;;;12.80;6.03;;;13.20;99.90;;;;;;4908710;29;20050;-80
2023/05/28 04:36:01;;;;;;;15.70;6.22;;;13.30;99.90;;;;;;4925539;28;20058;-79
2023/05/28 04:38:33;;;;;;;13.82;6.28;;;13.40;99.90;;;;;;4911087;29;20435;-77
2023/05/28 04:41:04;;;;;;;13.55;5.68;;;13.40;99.90;;;;;;4912479;28;20230;-77
2023/05/28 04:43:30;;;;;;;10.75;5.80;;;13.60;99.90;;;;;;4912764;28;20060;-78
2023/05/28 04:45:58;;;;;;;13.00;5.50;;;13.60;99.90;;;;;;4936849;28;20462;-81
2023/05/28 04:48:25;;;;;;;13.23;6.38;;;13.60;99.90;;;;;;4955214;28;20051;-81
2023/05/28 04:50:51;;;;;;;11.20;5.50;;;13.60;99.90;;;;;;4944553;28;20042;-78
2023/05/28 04:53:17;;;;;;;12.77;6.30;;;13.70;99.90;;;;;;4899591;29;20036;-77
2023/05/28 04:55:44;;;;;;;11.75;5.93;;;13.70;99.90;;;;;;4937653;28;20093;-79
2023/05/28 04:58:10;;;;;;;14.90;6.00;;;13.90;99.90;;;;;;4915300;28;20038;-79
2023/05/28 05:00:35;;;;;;;17.13;6.78;;;13.90;99.90;;;;;;4912653;28;20042;-78
2023/05/28 05:03:01;;;;;;;11.73;6.40;;;14.00;99.90;;;;;;4930438;29;20040;-79
2023/05/28 05:05:27;;;;;;;16.35;6.95;;;14.00;99.90;;;;;;4908669;29;20075;-81
2023/05/28 05:07:53;;;;;;;12.13;6.10;;;14.00;99.90;;;;;;4906910;29;20075;-81
2023/05/28 05:10:19;;;;;;;18.17;6.40;;;14.10;99.90;;;;;;4914672;28;20093;-78
2023/05/28 05:12:45;;;;;;;11.73;5.32;;;14.20;99.90;;;;;;4916830;28;20044;-80
2023/05/28 05:15:11;;;;;;;10.65;5.20;;;14.20;99.90;;;;;;4913896;29;20070;-77
2023/05/28 05:17:36;;;;;;;14.82;6.18;;;14.30;99.90;;;;;;4911923;29;20090;-80
2023/05/28 05:20:06;;;;;;;11.35;5.45;;;14.30;99.90;;;;;;4930255;29;20044;-78
2023/05/28 05:22:32;;;;;;;16.02;6.25;;;14.40;99.90;;;;;;4965520;28;20043;-80
2023/05/28 05:24:57;;;;;;;14.05;5.68;;;14.30;99.90;;;;;;4913111;28;20032;-81
2023/05/28 05:27:23;;;;;;;13.02;6.15;;;14.40;99.90;;;;;;4896091;28;20059;-79
2023/05/28 05:29:49;;;;;;;13.40;6.03;;;14.50;99.90;;;;;;4933126;28;20052;-81
2023/05/28 05:32:15;;;;;;;10.30;5.43;;;14.60;99.90;;;;;;4929349;29;20048;-84
2023/05/28 05:34:40;;;;;;;15.35;5.82;;;14.80;99.90;;;;;;4899076;28;20040;-83
2023/05/28 05:37:06;;;;;;;18.38;5.35;;;14.80;99.90;;;;;;4928822;28;20051;-83
2023/05/28 05:39:32;;;;;;;9.57;4.82;;;15.10;99.90;;;;;;4918247;28;20040;-79
2023/05/28 05:41:59;;;;;;;11.93;5.05;;;15.10;99.90;;;;;;4929929;28;20089;-79
2023/05/28 05:44:25;;;;;;;8.77;4.70;;;15.30;99.90;;;;;;4915180;28;20522;-83
2023/05/28 05:46:50;;;;;;;12.23;5.05;;;15.30;99.90;;;;;;4893497;28;20047;-78
2023/05/28 05:49:16;;;;;;;9.07;5.00;;;15.50;99.90;;;;;;4905435;29;20056;-78
2023/05/28 05:51:42;;;;;;;11.25;5.35;;;15.60;99.90;;;;;;4907928;29;20047;-79
2023/05/28 05:54:07;;;;;;;13.52;5.47;;;15.70;99.90;;;;;;4927235;28;20043;-77
2023/05/28 05:56:34;;;;;;;13.98;5.70;;;15.60;99.90;;;;;;4896465;28;20108;-81
2023/05/28 05:59:00;;;;;;;13.77;5.72;;;15.80;99.90;;;;;;4921089;29;20428;-77
2023/05/28 06:01:25;;;;;;;8.55;4.55;;;15.80;99.90;;;;;;4893450;28;20079;-78
2023/05/28 06:03:52;;;;;;;12.73;5.45;;;16.10;99.90;;;;;;4927066;28;20079;-81
2023/05/28 06:06:18;;;;;;;13.45;5.25;;;16.00;99.90;;;;;;4906148;28;20052;-80
2023/05/28 06:08:44;;;;;;;7.95;5.00;;;16.10;99.90;;;;;;4905287;29;20047;-83
2023/05/28 06:11:09;;;;;;;11.50;5.45;;;16.20;99.90;;;;;;4878455;29;20051;-78
2023/05/28 06:13:37;;;;;;;12.55;5.88;;;16.30;99.90;;;;;;4897221;29;20177;-80
2023/05/28 06:16:03;;;;;;;10.88;5.47;;;16.60;99.90;;;;;;4909294;28;20190;-79
2023/05/28 06:18:32;;;;;;;11.77;5.13;;;16.60;99.90;;;;;;4953610;28;20062;-76
2023/05/28 06:20:58;;;;;;;11.23;5.18;;;16.60;99.90;;;;;;4917342;29;20039;-78
2023/05/28 06:23:24;;;;;;;12.45;5.50;;;16.70;99.90;;;;;;4919359;28;20044;-86
2023/05/28 06:25:50;;;;;;;10.90;5.30;;;16.90;99.90;;;;;;4897245;28;20035;-82
2023/05/28 06:28:16;;;;;;;13.88;5.95;;;17.00;99.90;;;;;;4905427;28;20416;-81
2023/05/28 06:30:42;;;;;;;11.70;5.30;;;17.20;99.90;;;;;;4914000;29;20083;-84
2023/05/28 06:33:09;;;;;;;8.93;5.07;;;17.20;99.90;;;;;;4906702;29;20039;-83
2023/05/28 06:35:35;;;;;;;10.82;4.50;;;17.00;99.90;;;;;;4908142;29;20040;-81
2023/05/28 06:38:01;;;;;;;10.43;4.57;;;17.10;99.90;;;;;;4912823;29;20519;-79
2023/05/28 06:40:27;;;;;;;8.68;4.60;;;17.30;99.90;;;;;;4927009;28;20039;-78
2023/05/28 06:42:52;;;;;;;9.93;4.30;;;17.30;99.90;;;;;;4909628;29;20048;-77
2023/05/28 06:45:18;;;;;;;10.00;4.30;;;17.40;99.90;;;;;;4885932;29;20061;-83
2023/05/28 06:47:45;;;;;;;11.38;4.30;;;17.50;99.90;;;;;;4893749;28;20715;-76
2023/05/28 06:50:11;;;;;;;8.27;3.58;;;17.50;99.90;;;;;;4899933;28;20054;-77
2023/05/28 06:52:37;;;;;;;9.82;4.05;;;17.70;99.90;;;;;;4927494;29;20039;-83
2023/05/28 06:55:04;;;;;;;7.57;3.97;;;17.60;99.90;;;;;;4905499;28;20097;-79
2023/05/28 06:57:32;;;;;;;10.18;4.22;;;18.00;99.90;;;;;;4895049;29;20105;-80
2023/05/28 06:59:58;;;;;;;8.77;4.03;;;17.70;99.90;;;;;;4927716;28;20047;-78
2023/05/28 07:02:25;;;;;;;8.57;3.63;;;17.80;99.90;;;;;;4929764;28;20054;-79
2023/05/28 07:04:51;;;;;;;8.63;4.57;;;17.70;99.90;;;;;;4880496;29;20048;-78
2023/05/28 07:07:17;;;;;;;8.20;4.55;;;18.10;99.90;;;;;;4911161;28;20046;-79
2023/05/28 07:09:43;;;;;;;10.32;4.22;;;17.90;99.90;;;;;;4913080;29;20071;-80
2023/05/28 07:12:08;;;;;;;10.38;4.15;;;18.00;99.90;;;;;;4907971;28;20602;-76
2023/05/28 07:14:34;;;;;;;8.13;3.20;;;18.40;99.90;;;;;;4936152;28;20049;-80
2023/05/28 07:17:00;;;;;;;7.07;3.28;;;18.00;99.90;;;;;;4934792;28;20040;-81
2023/05/28 07:19:26;;;;;;;6.75;3.60;;;18.20;99.90;;;;;;4986811;28;20043;-80
2023/05/28 07:21:52;;;;;;;9.40;4.05;;;18.20;99.90;;;;;;4908303;28;20051;-78
2023/05/28 07:24:17;;;;;;;11.32;3.45;;;18.20;99.90;;;;;;4920555;28;20126;-78
2023/05/28 07:26:44;;;;;;;7.78;3.58;;;18.20;99.90;;;;;;4904310;29;20101;-80
2023/05/28 07:29:13;;;;;;;4.75;2.75;;;18.50;99.90;;;;;;4926041;28;20491;-80
2023/05/28 07:31:38;;;;;;;8.52;3.45;;;18.50;99.90;;;;;;4898860;28;20445;-82
2023/05/28 07:34:05;;;;;;;6.50;3.25;;;18.60;99.90;;;;;;4912158;28;20131;-80
2023/05/28 07:36:31;;;;;;;5.70;2.97;;;18.60;99.90;;;;;;4919959;28;20047;-78
2023/05/28 07:38:57;;;;;;;4.63;2.53;;;18.50;99.90;;;;;;4914703;28;20491;-80
2023/05/28 07:41:22;;;;;;;4.03;2.78;;;18.50;99.90;;;;;;4976306;28;20064;-80
2023/05/28 07:43:48;;;;;;;5.13;2.70;;;18.70;99.90;;;;;;4894365;28;20158;-77
2023/05/28 07:46:16;;;;;;;6.47;3.35;;;18.90;99.90;;;;;;4901655;29;20067;-76
2023/05/28 07:48:43;;;;;;;4.75;2.67;;;19.00;99.90;;;;;;4926176;29;20044;-77
2023/05/28 07:51:10;;;;;;;4.57;2.92;;;19.10;99.90;;;;;;4908692;28;20044;-76
2023/05/28 07:53:36;;;;;;;4.80;2.80;;;19.30;99.90;;;;;;4913441;28;20031;-76
2023/05/28 07:56:01;;;;;;;5.82;3.03;;;18.90;99.90;;;;;;4908972;28;20047;-79
2023/05/28 07:58:27;;;;;;;5.32;3.00;;;19.50;99.90;;;;;;4926859;29;20105;-76
2023/05/28 08:00:53;;;;;;;6.22;2.90;;;19.60;99.90;;;;;;4918513;28;20514;-78
2023/05/28 08:03:19;;;;;;;5.70;3.10;;;19.70;99.90;;;;;;4910594;29;20097;-79
2023/05/28 08:05:45;;;;;;;5.00;3.08;;;19.60;81.60;;;;;;4909891;28;20043;-77
2023/05/28 08:08:11;;;;;;;4.30;2.80;;;19.40;47.40;;;;;;4927448;29;20055;-78
2023/05/28 08:10:37;;;;;;;6.38;3.50;;;19.60;63.50;;;;;;4924994;28;20043;-79
2023/05/28 08:13:02;;;;;;;5.45;3.25;;;19.80;55.80;;;;;;4890867;29;20054;-78
2023/05/28 08:15:28;;;;;;;5.45;3.25;;;20.10;45.30;;;;;;4893727;29;20152;-77
2023/05/28 08:17:54;;;;;;;6.35;3.40;;;20.10;26.10;;;;;;4906451;28;20047;-81
2023/05/28 08:20:22;;;;;;;7.75;3.47;;;20.10;11.30;;;;;;4910037;28;20459;-75
2023/05/28 08:22:48;;;;;;;6.88;3.55;;;20.30;7.60;;;;;;4921428;29;20060;-79
2023/05/28 08:25:14;;;;;;;5.68;3.05;;;20.20;1.00;;;;;;4903112;28;20048;-82
2023/05/28 08:27:40;;;;;;;5.50;3.53;;;20.30;1.00;;;;;;4925141;29;20131;-76
2023/05/28 08:30:06;;;;;;;5.45;3.13;;;20.40;1.00;;;;;;4895617;29;20841;-77
2023/05/28 08:32:32;;;;;;;4.45;3.20;;;20.10;1.00;;;;;;4906942;29;20035;-75
2023/05/28 08:34:57;;;;;;;5.82;3.42;;;20.30;1.00;;;;;;4895208;29;20377;-75
2023/05/28 08:37:23;;;;;;;7.07;3.65;;;20.40;1.00;;;;;;4926399;29;20138;-78
2023/05/28 08:39:49;;;;;;;7.18;3.97;;;20.60;1.00;;;;;;4908958;28;20523;-77
2023/05/28 08:42:15;;;;;;;6.32;4.13;;;20.80;1.00;;;;;;4939567;28;20430;-74
2023/05/28 08:44:41;;;;;;;6.30;3.83;;;20.40;1.00;;;;;;4924108;28;20135;-77
2023/05/28 08:47:08;;;;;;;5.63;3.88;;;21.00;1.00;;;;;;4929859;28;20388;-80
2023/05/28 08:49:41;;;;;;;6.50;4.30;;;20.90;1.00;;;;;;4935904;28;20036;-78
2023/05/28 08:52:10;;;;;;;6.35;4.03;;;20.90;1.00;;;;;;4923748;28;20070;-75
2023/05/28 08:54:38;;;;;;;8.73;4.13;;;20.60;1.00;;;;;;4906348;28;20208;-79
2023/05/28 08:57:04;;;;;;;7.53;4.07;;;21.10;1.00;;;;;;4888870;28;20122;-76
2023/05/28 08:59:31;;;;;;;6.45;4.10;;;21.30;1.00;;;;;;4892477;28;20408;-76
2023/05/28 09:01:56;;;;;;;5.85;3.90;;;21.30;1.00;;;;;;4892574;29;20050;-79
2023/05/28 09:04:22;;;;;;;8.38;4.50;;;21.60;1.00;;;;;;4930973;28;20040;-75
2023/05/28 09:06:51;;;;;;;6.40;4.65;;;21.60;1.00;;;;;;4905097;28;20041;-76
2023/05/28 09:09:17;;;;;;;6.10;3.85;;;21.80;99.90;;;;;;4904974;28;20055;-75
2023/05/28 09:11:43;;;;;;;6.85;4.90;;;21.80;99.90;;;;;;4897035;28;20044;-77
2023/05/28 09:14:10;;;;;;;7.47;4.25;;;21.20;99.90;;;;;;4918216;28;20048;-78
2023/05/28 09:16:39;;;;;;;6.90;4.47;;;21.60;1.00;;;;;;4899642;29;20043;-80
2023/05/28 09:19:05;;;;;;;6.93;4.95;;;21.80;1.00;;;;;;4923276;29;20046;-79
2023/05/28 09:21:32;;;;;;;6.53;4.72;;;22.00;1.00;;;;;;4925201;28;20468;-80
2023/05/28 09:24:03;;;;;;;7.65;4.68;;;22.50;1.00;;;;;;4920301;28;20058;-78
2023/05/28 09:26:30;;;;;;;9.82;4.65;;;22.90;1.00;;;;;;4934139;28;20036;-80
2023/05/28 09:28:56;;;;;;;7.50;4.95;;;21.90;99.90;;;;;;4921186;28;20041;-78
2023/05/28 09:31:32;;;;;;;7.70;4.40;;;22.30;99.90;;;;;;4927355;28;20126;-78
2023/05/28 09:34:04;;;;;;;8.02;4.93;;;22.00;99.90;;;;;;4913213;29;20035;-78
2023/05/28 09:36:30;;;;;;;7.55;5.00;;;22.80;99.90;;;;;;4916549;29;20047;-80
2023/05/28 09:38:56;;;;;;;8.27;4.97;;;23.10;99.90;;;;;;4925561;29;20044;-77
2023/05/28 09:41:33;;;;;;;6.38;4.72;;;23.10;99.90;;;;;;4928006;28;20400;-75
2023/05/28 09:44:04;;;;;;;8.43;5.50;;;22.80;99.90;;;;;;4904429;29;20064;-79
2023/05/28 09:46:34;;;;;;;7.78;5.28;;;23.30;99.90;;;;;;4909974;28;20080;-76
2023/05/28 09:49:01;;;;;;;6.90;5.15;;;24.10;99.90;;;;;;4910958;29;20039;-75
2023/05/28 09:51:29;;;;;;;8.90;5.38;;;24.60;99.90;;;;;;4925934;28;20047;-74
2023/05/28 09:54:00;;;;;;;8.32;5.40;;;24.80;99.90;;;;;;4925187;28;20055;-73
2023/05/28 09:56:31;;;;;;;6.38;5.25;;;23.90;99.90;;;;;;4924610;28;20372;-75
2023/05/28 09:59:01;;;;;;;7.40;5.50;;;24.10;99.90;;;;;;4929207;29;20491;-76
2023/05/28 10:01:35;;;;;;;10.20;6.70;;;23.20;99.90;;;;;;4932465;28;20122;-81
2023/05/28 10:04:08;;;;;;;9.02;6.05;;;23.60;99.90;;;;;;4927384;28;20737;-76
2023/05/28 10:06:36;;;;;;;9.10;6.13;;;23.00;99.90;;;;;;4910343;28;20396;-74
2023/05/28 10:09:04;;;;;;;8.23;5.88;;;23.70;99.90;;;;;;4911851;29;20052;-74
2023/05/28 10:11:34;;;;;;;8.52;6.13;;;24.50;99.90;;;;;;4896265;28;20177;-75
2023/05/28 10:14:02;;;;;;;7.30;6.43;;;24.40;99.90;;;;;;4907536;28;20149;-77
2023/05/28 10:16:29;;;;;;;8.48;7.07;;;23.50;99.90;;;;;;4895290;28;20119;-77
2023/05/28 10:18:56;;;;;;;9.68;7.25;;;23.90;99.90;;;;;;4892283;28;20048;-74
2023/05/28 10:21:23;;;;;;;8.55;7.15;;;23.30;18.70;;;;;;4912293;29;20043;-79
2023/05/28 10:23:50;;;;;;;8.05;6.35;;;23.20;31.20;;;;;;4928174;29;20047;-76
2023/05/28 10:26:16;;;;;;;8.82;6.38;;;23.90;92.60;;;;;;4910092;28;20063;-74
2023/05/28 10:28:43;;;;;;;7.00;5.60;;;24.30;99.90;;;;;;4912960;28;20052;-77
2023/05/28 10:31:10;;;;;;;8.13;6.40;;;24.50;99.90;;;;;;4932247;28;20044;-76
2023/05/28 10:33:43;;;;;;;7.78;5.88;;;25.30;99.90;;;;;;4914570;28;20043;-76
2023/05/28 10:36:11;;;;;;;7.30;5.27;;;25.20;75.20;;;;;;4896265;29;20672;-86
2023/05/28 10:38:58;;;;;;;7.25;5.32;;;25.60;80.20;;;;;;4911840;28;20040;-82
2023/05/28 10:41:24;;;;;;;6.90;4.88;;;24.70;1.00;;;;;;4913647;28;20126;-79
2023/05/28 10:43:51;;;;;;;5.20;4.60;;;25.00;1.00;;;;;;4912482;28;20052;-80
2023/05/28 10:46:35;;;;;;;6.40;4.22;;;25.50;19.50;;;;;;4900348;29;20044;-79
2023/05/28 10:49:12;;;;;;;6.20;4.10;;;24.70;1.00;;;;;;4910100;28;20050;-81
2023/05/28 10:51:56;;;;;;;4.50;3.65;;;24.70;16.70;;;;;;4930067;28;20621;-78
2023/05/28 10:54:41;;;;;;;5.47;3.85;;;25.10;56.20;;;;;;4910510;29;20070;-80
2023/05/28 10:57:11;;;;;;;5.13;3.55;;;24.80;99.90;;;;;;4913066;29;20039;-86
2023/05/28 10:59:51;;;;;;;5.45;3.78;;;25.20;99.90;;;;;;4910859;28;20090;-79
2023/05/28 11:02:34;;;;;;;4.22;3.13;;;25.00;99.90;;;;;;4904335;28;20452;-80
2023/05/28 11:05:01;;;;;;;6.60;3.85;;;25.00;99.90;;;;;;4902334;29;20032;-81
2023/05/28 11:07:35;;;;;;;6.95;3.97;;;25.20;99.90;;;;;;4897221;29;20560;-78
2023/05/28 11:10:05;;;;;;;5.15;3.63;;;24.90;99.90;;;;;;4927514;28;20039;-81
2023/05/28 11:12:35;;;;;;;5.40;3.17;;;24.40;99.90;;;;;;4912392;28;20443;-78
2023/05/28 11:15:01;;;;;;;4.28;2.90;;;25.00;99.90;;;;;;4923907;28;20039;-81
2023/05/28 11:17:26;;;;;;;5.13;3.05;;;25.40;99.90;;;;;;4911256;28;20040;-76
2023/05/28 11:19:53;;;;;;;5.10;3.13;;;25.20;99.90;;;;;;4914998;28;20052;-77
2023/05/28 11:22:20;;;;;;;4.68;3.30;;;25.50;99.90;;;;;;4915580;28;20055;-77
2023/05/28 11:24:59;;;;;;;4.57;2.63;;;25.00;99.90;;;;;;4932063;29;20704;-77
2023/05/28 11:27:30;;;;;;;5.05;2.75;;;25.50;99.90;;;;;;4926732;28;20094;-76
2023/05/28 11:29:58;;;;;;;4.53;2.85;;;25.80;99.90;;;;;;4926625;29;20044;-79
2023/05/28 11:32:24;;;;;;;6.22;3.63;;;25.60;99.90;;;;;;4917157;28;20073;-79
2023/05/28 11:34:52;;;;;;;5.40;3.08;;;25.30;99.90;;;;;;4912190;29;20117;-78
2023/05/28 11:37:27;;;;;;;4.55;2.72;;;25.10;99.90;;;;;;4898082;29;20036;-80
2023/05/28 11:39:54;;;;;;;5.13;3.33;;;25.60;99.90;;;;;;4912658;28;20056;-80
2023/05/28 11:42:21;;;;;;;5.10;3.08;;;25.80;99.90;;;;;;4911946;28;20067;-77
2023/05/28 11:44:48;;;;;;;6.78;2.88;;;25.70;99.90;;;;;;4918384;28;20150;-76
2023/05/28 11:47:15;;;;;;;6.15;3.45;;;26.10;99.90;;;;;;4925790;29;20593;-75
2023/05/28 11:49:41;;;;;;;6.47;3.33;;;26.40;99.90;;;;;;4929184;28;20408;-79
2023/05/28 11:52:11;;;;;;;5.40;2.78;;;25.50;99.90;;;;;;4898455;29;20048;-78
2023/05/28 11:54:38;;;;;;;4.97;3.20;;;25.90;99.90;;;;;;4911026;29;20044;-79
2023/05/28 11:57:05;;;;;;;5.97;3.33;;;25.90;99.90;;;;;;4912858;28;20099;-78
2023/05/28 11:59:31;;;;;;;6.05;3.25;;;25.20;99.90;;;;;;4910235;29;20040;-80
2023/05/28 12:02:16;;;;;;;5.43;3.40;;;25.80;99.90;;;;;;4912296;29;20054;-76
2023/05/28 12:04:56;;;;;;;6.82;3.42;;;25.30;99.90;;;;;;4922626;28;20040;-75
2023/05/28 12:07:29;;;;;;;8.77;3.58;;;25.30;99.90;;;;;;4912504;28;20039;-78
2023/05/28 12:10:12;;;;;;;6.15;3.10;;;25.40;99.90;;;;;;4911344;29;20044;-78
2023/05/28 12:12:52;;;;;;;6.50;3.10;;;25.30;99.90;;;;;;4922209;29;20143;-77
2023/05/28 12:15:22;;;;;;;5.85;3.13;;;24.80;99.90;;;;;;4912727;28;20078;-78
2023/05/28 12:18:02;;;;;;;5.20;2.83;;;25.10;99.90;;;;;;4928713;28;20054;-76
2023/05/28 12:20:30;;;;;;;5.45;3.28;;;25.30;99.90;;;;;;4927556;29;20044;-75
2023/05/28 12:23:06;;;;;;;6.95;3.15;;;24.20;99.90;;;;;;4957618;28;20434;-77
2023/05/28 12:25:58;;;;;;;6.80;3.25;;;25.00;99.90;;;;;;4923976;28;20048;-77
2023/05/28 12:28:24;;;;;;;4.90;2.92;;;24.60;99.90;;;;;;4911320;29;20147;-75
2023/05/28 12:30:52;;;;;;;7.20;2.90;;;25.00;99.90;;;;;;4906721;28;20131;-78
2023/05/28 12:33:19;;;;;;;6.07;3.00;;;24.60;99.90;;;;;;4899624;29;20043;-77
2023/05/28 12:35:45;;;;;;;6.20;3.30;;;24.40;99.90;;;;;;4923119;28;20074;-78
2023/05/28 12:38:13;;;;;;;9.38;3.80;;;23.70;1.00;;;;;;4908726;28;20149;-78
2023/05/28 12:40:38;;;;;;;7.20;3.17;;;24.10;1.00;;;;;;4911388;29;20047;-79
2023/05/28 12:43:04;;;;;;;8.20;3.38;;;23.90;1.00;;;;;;4928895;28;20134;-77
2023/05/28 12:45:30;;;;;;;7.35;3.30;;;24.30;1.00;;;;;;4911529;28;20106;-78